Weather at AeroNiebla

Public forecast

Using degrees Celsius for public forecast. Weather courtesy of forecast.io.

Closest aviation weather report (METAR) to AeroNiebla

Closest report is Base Aérea de El Copero, 32.8 nm (60.7 km) E.

2024/07/25 05:30 (retrieved 24 minutes ago)

LEEC 250530Z 19001KT CAVOK 19/14 Q1011

Closest aviation forecast (TAF) to AeroNiebla

Forecast is more than 12 hours old.

Closest forecast is Armilla Air Base, 146.3 nm (270.9 km) E.

2024/07/24 12:27 (retrieved 17 hours ago)

TAF LEGA 241100Z 2412/2512 VRB03KT CAVOK TX40/2415Z TN23/2505Z BECMG 2412/2414 18010KT BECMG 2421/2423 VRB02KT